sensor_id;sensor_type;location;lat;lon;timestamp;P1;durP1;ratioP1;P2;durP2;ratioP2
17207;SDS011;8720;48.488;9.202;2024-03-07T00:00:37;39.00;;;27.30;;
17207;SDS011;8720;48.488;9.202;2024-03-07T00:03:05;38.43;;;25.57;;
17207;SDS011;8720;48.488;9.202;2024-03-07T00:05:33;40.17;;;26.27;;
17207;SDS011;8720;48.488;9.202;2024-03-07T00:08:00;43.00;;;28.87;;
17207;SDS011;8720;48.488;9.202;2024-03-07T00:10:27;37.37;;;26.23;;
17207;SDS011;8720;48.488;9.202;2024-03-07T00:12:55;38.07;;;26.33;;
17207;SDS011;8720;48.488;9.202;2024-03-07T00:15:23;42.27;;;27.30;;
17207;SDS011;8720;48.488;9.202;2024-03-07T00:17:52;39.90;;;28.13;;
17207;SDS011;8720;48.488;9.202;2024-03-07T00:20:20;36.43;;;26.20;;
17207;SDS011;8720;48.488;9.202;2024-03-07T00:22:47;36.63;;;25.50;;
17207;SDS011;8720;48.488;9.202;2024-03-07T00:25:15;39.20;;;26.73;;
17207;SDS011;8720;48.488;9.202;2024-03-07T00:27:44;35.83;;;26.07;;
17207;SDS011;8720;48.488;9.202;2024-03-07T00:30:12;41.27;;;27.83;;
17207;SDS011;8720;48.488;9.202;2024-03-07T00:32:44;38.50;;;25.40;;
17207;SDS011;8720;48.488;9.202;2024-03-07T00:35:12;38.00;;;26.17;;
17207;SDS011;8720;48.488;9.202;2024-03-07T00:37:39;37.30;;;26.87;;
17207;SDS011;8720;48.488;9.202;2024-03-07T00:40:07;38.57;;;26.03;;
17207;SDS011;8720;48.488;9.202;2024-03-07T00:42:36;36.03;;;24.93;;
17207;SDS011;8720;48.488;9.202;2024-03-07T00:45:04;37.63;;;27.50;;
17207;SDS011;8720;48.488;9.202;2024-03-07T00:47:32;38.23;;;25.80;;
17207;SDS011;8720;48.488;9.202;2024-03-07T00:50:01;35.97;;;25.60;;
17207;SDS011;8720;48.488;9.202;2024-03-07T00:52:28;34.50;;;24.50;;
17207;SDS011;8720;48.488;9.202;2024-03-07T00:54:56;36.90;;;26.23;;
17207;SDS011;8720;48.488;9.202;2024-03-07T00:57:23;33.93;;;24.97;;
17207;SDS011;8720;48.488;9.202;2024-03-07T00:59:50;36.30;;;24.30;;
17207;SDS011;8720;48.488;9.202;2024-03-07T01:02:18;34.40;;;25.00;;
17207;SDS011;8720;48.488;9.202;2024-03-07T01:04:45;38.93;;;27.47;;
17207;SDS011;8720;48.488;9.202;2024-03-07T01:07:15;35.10;;;24.70;;
17207;SDS011;8720;48.488;9.202;2024-03-07T01:09:42;37.17;;;25.20;;
17207;SDS011;8720;48.488;9.202;2024-03-07T01:12:10;37.33;;;25.53;;
17207;SDS011;8720;48.488;9.202;2024-03-07T01:14:37;37.80;;;26.10;;
17207;SDS011;8720;48.488;9.202;2024-03-07T01:17:04;35.67;;;24.03;;
17207;SDS011;8720;48.488;9.202;2024-03-07T01:19:33;35.93;;;26.30;;
17207;SDS011;8720;48.488;9.202;2024-03-07T01:22:01;35.70;;;24.50;;
17207;SDS011;8720;48.488;9.202;2024-03-07T01:24:29;31.67;;;23.93;;
17207;SDS011;8720;48.488;9.202;2024-03-07T01:26:58;34.13;;;24.40;;
17207;SDS011;8720;48.488;9.202;2024-03-07T01:29:25;36.30;;;25.87;;
17207;SDS011;8720;48.488;9.202;2024-03-07T01:31:53;35.00;;;22.57;;
17207;SDS011;8720;48.488;9.202;2024-03-07T01:34:20;36.40;;;25.83;;
17207;SDS011;8720;48.488;9.202;2024-03-07T01:36:48;36.27;;;25.07;;
17207;SDS011;8720;48.488;9.202;2024-03-07T01:39:15;36.23;;;24.57;;
17207;SDS011;8720;48.488;9.202;2024-03-07T01:41:44;34.17;;;24.90;;
17207;SDS011;8720;48.488;9.202;2024-03-07T01:44:13;35.90;;;23.90;;
17207;SDS011;8720;48.488;9.202;2024-03-07T01:46:40;38.67;;;25.80;;
17207;SDS011;8720;48.488;9.202;2024-03-07T01:49:08;34.83;;;25.77;;
17207;SDS011;8720;48.488;9.202;2024-03-07T01:51:36;36.83;;;24.37;;
17207;SDS011;8720;48.488;9.202;2024-03-07T01:54:05;38.20;;;24.80;;
17207;SDS011;8720;48.488;9.202;2024-03-07T01:56:36;34.50;;;25.77;;
17207;SDS011;8720;48.488;9.202;2024-03-07T01:59:06;38.80;;;25.50;;
17207;SDS011;8720;48.488;9.202;2024-03-07T02:01:36;36.20;;;24.80;;
17207;SDS011;8720;48.488;9.202;2024-03-07T02:04:04;36.53;;;24.33;;
17207;SDS011;8720;48.488;9.202;2024-03-07T02:06:31;33.77;;;25.10;;
17207;SDS011;8720;48.488;9.202;2024-03-07T02:09:00;34.37;;;23.80;;
17207;SDS011;8720;48.488;9.202;2024-03-07T02:11:28;38.70;;;26.60;;
17207;SDS011;8720;48.488;9.202;2024-03-07T02:13:55;33.90;;;24.13;;
17207;SDS011;8720;48.488;9.202;2024-03-07T02:16:24;39.43;;;25.20;;
17207;SDS011;8720;48.488;9.202;2024-03-07T02:18:52;39.07;;;26.20;;
17207;SDS011;8720;48.488;9.202;2024-03-07T02:21:22;37.87;;;25.33;;
17207;SDS011;8720;48.488;9.202;2024-03-07T02:23:49;36.80;;;25.10;;
17207;SDS011;8720;48.488;9.202;2024-03-07T02:26:17;35.63;;;25.43;;
17207;SDS011;8720;48.488;9.202;2024-03-07T02:28:44;36.63;;;24.90;;
17207;SDS011;8720;48.488;9.202;2024-03-07T02:31:12;31.37;;;23.07;;
17207;SDS011;8720;48.488;9.202;2024-03-07T02:33:39;39.07;;;26.77;;
17207;SDS011;8720;48.488;9.202;2024-03-07T02:36:07;37.20;;;25.93;;
17207;SDS011;8720;48.488;9.202;2024-03-07T02:38:35;36.33;;;24.90;;
17207;SDS011;8720;48.488;9.202;2024-03-07T02:41:03;40.27;;;26.40;;
17207;SDS011;8720;48.488;9.202;2024-03-07T02:43:31;36.10;;;25.23;;
17207;SDS011;8720;48.488;9.202;2024-03-07T02:46:03;37.20;;;25.73;;
17207;SDS011;8720;48.488;9.202;2024-03-07T02:48:31;37.80;;;27.50;;
17207;SDS011;8720;48.488;9.202;2024-03-07T02:50:59;38.70;;;25.27;;
17207;SDS011;8720;48.488;9.202;2024-03-07T02:53:26;36.27;;;26.83;;
17207;SDS011;8720;48.488;9.202;2024-03-07T02:55:54;40.50;;;27.50;;
17207;SDS011;8720;48.488;9.202;2024-03-07T02:58:22;40.30;;;25.47;;
17207;SDS011;8720;48.488;9.202;2024-03-07T03:03:33;38.10;;;25.57;;
17207;SDS011;8720;48.488;9.202;2024-03-07T03:06:00;39.57;;;26.53;;
17207;SDS011;8720;48.488;9.202;2024-03-07T03:08:27;42.93;;;27.73;;
17207;SDS011;8720;48.488;9.202;2024-03-07T03:10:56;39.23;;;26.73;;
17207;SDS011;8720;48.488;9.202;2024-03-07T03:13:24;41.70;;;28.77;;
17207;SDS011;8720;48.488;9.202;2024-03-07T03:15:53;39.83;;;27.97;;
17207;SDS011;8720;48.488;9.202;2024-03-07T03:18:21;45.00;;;29.07;;
17207;SDS011;8720;48.488;9.202;2024-03-07T03:20:48;38.80;;;28.37;;
17207;SDS011;8720;48.488;9.202;2024-03-07T03:23:16;41.93;;;28.10;;
17207;SDS011;8720;48.488;9.202;2024-03-07T03:25:43;40.93;;;27.37;;
17207;SDS011;8720;48.488;9.202;2024-03-07T03:28:14;47.90;;;29.80;;
17207;SDS011;8720;48.488;9.202;2024-03-07T03:30:42;44.73;;;29.33;;
17207;SDS011;8720;48.488;9.202;2024-03-07T03:33:09;43.27;;;29.33;;
17207;SDS011;8720;48.488;9.202;2024-03-07T03:35:37;43.80;;;29.70;;
17207;SDS011;8720;48.488;9.202;2024-03-07T03:38:05;44.83;;;29.00;;
17207;SDS011;8720;48.488;9.202;2024-03-07T03:40:33;45.80;;;30.77;;
17207;SDS011;8720;48.488;9.202;2024-03-07T03:43:00;46.03;;;31.93;;
17207;SDS011;8720;48.488;9.202;2024-03-07T03:45:30;45.90;;;31.37;;
17207;SDS011;8720;48.488;9.202;2024-03-07T03:47:59;43.90;;;29.50;;
17207;SDS011;8720;48.488;9.202;2024-03-07T03:50:26;43.30;;;30.90;;
17207;SDS011;8720;48.488;9.202;2024-03-07T03:52:54;46.13;;;30.67;;
17207;SDS011;8720;48.488;9.202;2024-03-07T03:55:22;45.07;;;30.47;;
17207;SDS011;8720;48.488;9.202;2024-03-07T03:57:49;44.83;;;31.30;;
17207;SDS011;8720;48.488;9.202;2024-03-07T04:00:17;46.50;;;31.73;;
17207;SDS011;8720;48.488;9.202;2024-03-07T04:02:49;45.27;;;30.90;;
17207;SDS011;8720;48.488;9.202;2024-03-07T04:05:17;47.53;;;31.23;;
17207;SDS011;8720;48.488;9.202;2024-03-07T04:07:46;49.90;;;32.53;;
17207;SDS011;8720;48.488;9.202;2024-03-07T04:10:15;52.30;;;33.87;;
17207;SDS011;8720;48.488;9.202;2024-03-07T04:12:44;43.77;;;31.20;;
17207;SDS011;8720;48.488;9.202;2024-03-07T04:15:12;43.97;;;29.83;;
17207;SDS011;8720;48.488;9.202;2024-03-07T04:17:41;42.17;;;29.00;;
17207;SDS011;8720;48.488;9.202;2024-03-07T04:20:11;47.97;;;32.37;;
17207;SDS011;8720;48.488;9.202;2024-03-07T04:22:39;44.80;;;31.23;;
17207;SDS011;8720;48.488;9.202;2024-03-07T04:25:07;44.73;;;30.73;;
17207;SDS011;8720;48.488;9.202;2024-03-07T04:27:35;50.00;;;31.80;;
17207;SDS011;8720;48.488;9.202;2024-03-07T04:30:05;44.70;;;30.47;;
17207;SDS011;8720;48.488;9.202;2024-03-07T04:32:36;46.13;;;29.93;;
17207;SDS011;8720;48.488;9.202;2024-03-07T04:35:04;61.70;;;34.10;;
17207;SDS011;8720;48.488;9.202;2024-03-07T04:37:36;47.63;;;31.27;;
17207;SDS011;8720;48.488;9.202;2024-03-07T04:40:06;50.97;;;31.00;;
17207;SDS011;8720;48.488;9.202;2024-03-07T04:42:41;49.93;;;32.17;;
17207;SDS011;8720;48.488;9.202;2024-03-07T04:45:09;45.60;;;31.30;;
17207;SDS011;8720;48.488;9.202;2024-03-07T04:47:38;48.30;;;32.10;;
17207;SDS011;8720;48.488;9.202;2024-03-07T04:50:07;50.90;;;32.83;;
17207;SDS011;8720;48.488;9.202;2024-03-07T04:52:38;50.43;;;31.67;;
17207;SDS011;8720;48.488;9.202;2024-03-07T04:55:06;48.90;;;33.50;;
17207;SDS011;8720;48.488;9.202;2024-03-07T04:57:35;48.03;;;31.83;;
17207;SDS011;8720;48.488;9.202;2024-03-07T05:00:04;54.77;;;33.40;;
17207;SDS011;8720;48.488;9.202;2024-03-07T05:02:38;47.13;;;32.67;;
17207;SDS011;8720;48.488;9.202;2024-03-07T05:05:06;46.37;;;31.43;;
17207;SDS011;8720;48.488;9.202;2024-03-07T05:07:33;48.43;;;33.63;;
17207;SDS011;8720;48.488;9.202;2024-03-07T05:10:03;48.27;;;34.00;;
17207;SDS011;8720;48.488;9.202;2024-03-07T05:12:33;50.10;;;32.87;;
17207;SDS011;8720;48.488;9.202;2024-03-07T05:15:01;49.60;;;32.60;;
17207;SDS011;8720;48.488;9.202;2024-03-07T05:17:30;50.67;;;32.33;;
17207;SDS011;8720;48.488;9.202;2024-03-07T05:19:59;50.07;;;33.97;;
17207;SDS011;8720;48.488;9.202;2024-03-07T05:22:27;48.60;;;32.80;;
17207;SDS011;8720;48.488;9.202;2024-03-07T05:24:55;52.30;;;34.33;;
17207;SDS011;8720;48.488;9.202;2024-03-07T05:27:25;49.63;;;33.73;;
17207;SDS011;8720;48.488;9.202;2024-03-07T05:29:52;50.10;;;31.50;;
17207;SDS011;8720;48.488;9.202;2024-03-07T05:32:21;49.87;;;32.80;;
17207;SDS011;8720;48.488;9.202;2024-03-07T05:34:49;51.00;;;32.87;;
17207;SDS011;8720;48.488;9.202;2024-03-07T05:37:18;53.90;;;32.27;;
17207;SDS011;8720;48.488;9.202;2024-03-07T05:39:47;48.77;;;32.90;;
17207;SDS011;8720;48.488;9.202;2024-03-07T05:42:14;50.00;;;33.03;;
17207;SDS011;8720;48.488;9.202;2024-03-07T05:44:43;46.70;;;31.40;;
17207;SDS011;8720;48.488;9.202;2024-03-07T05:47:10;53.33;;;33.47;;
17207;SDS011;8720;48.488;9.202;2024-03-07T05:49:39;54.33;;;33.70;;
17207;SDS011;8720;48.488;9.202;2024-03-07T05:52:06;51.57;;;33.40;;
17207;SDS011;8720;48.488;9.202;2024-03-07T05:54:34;49.67;;;32.83;;
17207;SDS011;8720;48.488;9.202;2024-03-07T05:57:02;51.00;;;33.13;;
17207;SDS011;8720;48.488;9.202;2024-03-07T05:59:32;52.47;;;32.57;;
17207;SDS011;8720;48.488;9.202;2024-03-07T06:02:00;59.60;;;42.00;;
17207;SDS011;8720;48.488;9.202;2024-03-07T06:04:28;53.00;;;36.40;;
17207;SDS011;8720;48.488;9.202;2024-03-07T06:06:57;55.47;;;33.43;;
17207;SDS011;8720;48.488;9.202;2024-03-07T06:09:25;50.70;;;33.77;;
17207;SDS011;8720;48.488;9.202;2024-03-07T06:11:52;52.10;;;33.20;;
17207;SDS011;8720;48.488;9.202;2024-03-07T06:14:19;50.93;;;32.97;;
17207;SDS011;8720;48.488;9.202;2024-03-07T06:16:48;48.97;;;33.23;;
17207;SDS011;8720;48.488;9.202;2024-03-07T06:19:18;49.20;;;31.40;;
17207;SDS011;8720;48.488;9.202;2024-03-07T06:21:45;51.63;;;34.07;;
17207;SDS011;8720;48.488;9.202;2024-03-07T06:24:13;50.10;;;32.23;;
17207;SDS011;8720;48.488;9.202;2024-03-07T06:26:42;48.05;;;32.92;;
17207;SDS011;8720;48.488;9.202;2024-03-07T06:29:15;52.10;;;34.60;;
17207;SDS011;8720;48.488;9.202;2024-03-07T06:31:44;51.50;;;33.17;;
17207;SDS011;8720;48.488;9.202;2024-03-07T06:34:12;52.33;;;33.63;;
17207;SDS011;8720;48.488;9.202;2024-03-07T06:36:41;54.03;;;34.47;;
17207;SDS011;8720;48.488;9.202;2024-03-07T06:39:08;50.27;;;34.07;;
17207;SDS011;8720;48.488;9.202;2024-03-07T06:41:36;50.83;;;33.20;;
17207;SDS011;8720;48.488;9.202;2024-03-07T06:44:04;58.97;;;35.87;;
17207;SDS011;8720;48.488;9.202;2024-03-07T06:46:32;53.20;;;33.50;;
17207;SDS011;8720;48.488;9.202;2024-03-07T06:48:59;53.57;;;32.10;;
17207;SDS011;8720;48.488;9.202;2024-03-07T06:51:27;54.10;;;33.80;;
17207;SDS011;8720;48.488;9.202;2024-03-07T06:53:56;53.67;;;33.90;;
17207;SDS011;8720;48.488;9.202;2024-03-07T06:56:24;58.53;;;33.80;;
17207;SDS011;8720;48.488;9.202;2024-03-07T06:58:51;50.73;;;34.00;;
17207;SDS011;8720;48.488;9.202;2024-03-07T07:01:18;52.90;;;32.23;;
17207;SDS011;8720;48.488;9.202;2024-03-07T07:03:46;54.67;;;35.37;;
17207;SDS011;8720;48.488;9.202;2024-03-07T07:06:13;53.93;;;33.60;;
17207;SDS011;8720;48.488;9.202;2024-03-07T07:08:41;55.00;;;35.73;;
17207;SDS011;8720;48.488;9.202;2024-03-07T07:11:10;52.90;;;34.20;;
17207;SDS011;8720;48.488;9.202;2024-03-07T07:13:38;60.20;;;35.93;;
17207;SDS011;8720;48.488;9.202;2024-03-07T07:16:07;53.63;;;33.90;;
17207;SDS011;8720;48.488;9.202;2024-03-07T07:18:35;59.80;;;35.27;;
17207;SDS011;8720;48.488;9.202;2024-03-07T07:21:03;53.87;;;33.97;;
17207;SDS011;8720;48.488;9.202;2024-03-07T07:23:35;54.37;;;34.97;;
17207;SDS011;8720;48.488;9.202;2024-03-07T07:26:03;54.87;;;32.90;;
17207;SDS011;8720;48.488;9.202;2024-03-07T07:28:33;53.77;;;33.63;;
17207;SDS011;8720;48.488;9.202;2024-03-07T07:31:01;50.17;;;31.80;;
17207;SDS011;8720;48.488;9.202;2024-03-07T07:33:30;48.40;;;30.37;;
17207;SDS011;8720;48.488;9.202;2024-03-07T07:35:57;48.97;;;31.90;;
17207;SDS011;8720;48.488;9.202;2024-03-07T07:38:25;51.23;;;32.00;;
17207;SDS011;8720;48.488;9.202;2024-03-07T07:40:53;47.67;;;32.10;;
17207;SDS011;8720;48.488;9.202;2024-03-07T07:43:20;53.20;;;31.77;;
17207;SDS011;8720;48.488;9.202;2024-03-07T07:45:49;47.53;;;30.80;;
17207;SDS011;8720;48.488;9.202;2024-03-07T07:48:17;54.17;;;33.50;;
17207;SDS011;8720;48.488;9.202;2024-03-07T07:50:44;49.70;;;33.27;;
17207;SDS011;8720;48.488;9.202;2024-03-07T07:53:11;47.17;;;31.03;;
17207;SDS011;8720;48.488;9.202;2024-03-07T07:55:39;51.80;;;32.83;;
17207;SDS011;8720;48.488;9.202;2024-03-07T07:58:07;48.97;;;32.53;;
17207;SDS011;8720;48.488;9.202;2024-03-07T08:00:34;50.90;;;31.73;;
17207;SDS011;8720;48.488;9.202;2024-03-07T08:03:04;49.80;;;31.30;;
17207;SDS011;8720;48.488;9.202;2024-03-07T08:05:32;48.67;;;31.60;;
17207;SDS011;8720;48.488;9.202;2024-03-07T08:08:02;52.83;;;33.50;;
17207;SDS011;8720;48.488;9.202;2024-03-07T08:10:32;49.50;;;32.03;;
17207;SDS011;8720;48.488;9.202;2024-03-07T08:13:01;48.20;;;31.47;;
17207;SDS011;8720;48.488;9.202;2024-03-07T08:15:31;52.60;;;32.70;;
17207;SDS011;8720;48.488;9.202;2024-03-07T08:17:58;57.00;;;34.50;;
17207;SDS011;8720;48.488;9.202;2024-03-07T08:20:28;48.03;;;31.80;;
17207;SDS011;8720;48.488;9.202;2024-03-07T08:22:56;55.93;;;34.57;;
17207;SDS011;8720;48.488;9.202;2024-03-07T08:25:25;56.03;;;33.60;;
17207;SDS011;8720;48.488;9.202;2024-03-07T08:27:55;56.53;;;34.77;;
17207;SDS011;8720;48.488;9.202;2024-03-07T08:30:24;52.03;;;32.97;;
17207;SDS011;8720;48.488;9.202;2024-03-07T08:32:55;48.53;;;32.17;;
17207;SDS011;8720;48.488;9.202;2024-03-07T08:35:24;55.20;;;34.33;;
17207;SDS011;8720;48.488;9.202;2024-03-07T08:37:53;50.33;;;33.57;;
17207;SDS011;8720;48.488;9.202;2024-03-07T08:40:23;53.00;;;34.70;;
17207;SDS011;8720;48.488;9.202;2024-03-07T08:42:56;58.37;;;34.20;;
17207;SDS011;8720;48.488;9.202;2024-03-07T08:45:24;53.87;;;34.10;;
17207;SDS011;8720;48.488;9.202;2024-03-07T08:47:52;48.03;;;33.13;;
17207;SDS011;8720;48.488;9.202;2024-03-07T08:50:22;51.20;;;33.93;;
17207;SDS011;8720;48.488;9.202;2024-03-07T08:52:51;48.90;;;30.60;;
17207;SDS011;8720;48.488;9.202;2024-03-07T08:55:21;55.47;;;33.07;;
17207;SDS011;8720;48.488;9.202;2024-03-07T08:57:51;50.53;;;34.40;;
17207;SDS011;8720;48.488;9.202;2024-03-07T09:00:18;60.37;;;35.23;;
17207;SDS011;8720;48.488;9.202;2024-03-07T09:02:49;54.10;;;33.10;;
17207;SDS011;8720;48.488;9.202;2024-03-07T09:05:18;53.03;;;35.37;;
17207;SDS011;8720;48.488;9.202;2024-03-07T09:07:47;57.83;;;35.40;;
17207;SDS011;8720;48.488;9.202;2024-03-07T09:10:16;56.10;;;34.27;;
17207;SDS011;8720;48.488;9.202;2024-03-07T09:12:45;55.20;;;35.00;;
17207;SDS011;8720;48.488;9.202;2024-03-07T09:15:15;52.73;;;34.00;;
17207;SDS011;8720;48.488;9.202;2024-03-07T09:17:46;61.63;;;36.43;;
17207;SDS011;8720;48.488;9.202;2024-03-07T09:20:14;56.93;;;34.03;;
17207;SDS011;8720;48.488;9.202;2024-03-07T09:22:42;54.40;;;33.97;;
17207;SDS011;8720;48.488;9.202;2024-03-07T09:25:10;54.83;;;33.27;;
17207;SDS011;8720;48.488;9.202;2024-03-07T09:27:40;58.90;;;35.40;;
17207;SDS011;8720;48.488;9.202;2024-03-07T09:30:07;61.57;;;36.17;;
17207;SDS011;8720;48.488;9.202;2024-03-07T09:32:40;69.03;;;36.70;;
17207;SDS011;8720;48.488;9.202;2024-03-07T09:35:08;62.13;;;36.40;;
17207;SDS011;8720;48.488;9.202;2024-03-07T09:37:39;51.27;;;33.87;;
17207;SDS011;8720;48.488;9.202;2024-03-07T09:40:07;54.10;;;35.40;;
17207;SDS011;8720;48.488;9.202;2024-03-07T09:42:41;57.17;;;37.70;;
17207;SDS011;8720;48.488;9.202;2024-03-07T09:45:16;57.50;;;35.27;;
17207;SDS011;8720;48.488;9.202;2024-03-07T09:47:48;56.83;;;35.23;;
17207;SDS011;8720;48.488;9.202;2024-03-07T09:50:17;64.07;;;37.60;;
17207;SDS011;8720;48.488;9.202;2024-03-07T09:52:47;57.83;;;36.40;;
17207;SDS011;8720;48.488;9.202;2024-03-07T09:55:16;61.20;;;35.53;;
17207;SDS011;8720;48.488;9.202;2024-03-07T09:57:46;57.87;;;34.57;;
17207;SDS011;8720;48.488;9.202;2024-03-07T10:00:16;63.20;;;35.63;;
17207;SDS011;8720;48.488;9.202;2024-03-07T10:02:50;52.00;;;34.77;;
17207;SDS011;8720;48.488;9.202;2024-03-07T10:05:23;59.10;;;37.13;;
17207;SDS011;8720;48.488;9.202;2024-03-07T10:07:55;56.60;;;36.70;;
17207;SDS011;8720;48.488;9.202;2024-03-07T10:10:22;60.63;;;35.53;;
17207;SDS011;8720;48.488;9.202;2024-03-07T10:12:52;56.13;;;35.93;;
17207;SDS011;8720;48.488;9.202;2024-03-07T10:15:22;53.80;;;34.73;;
17207;SDS011;8720;48.488;9.202;2024-03-07T10:17:55;51.97;;;33.57;;
17207;SDS011;8720;48.488;9.202;2024-03-07T10:20:25;51.30;;;34.37;;
17207;SDS011;8720;48.488;9.202;2024-03-07T10:22:56;49.87;;;34.40;;
17207;SDS011;8720;48.488;9.202;2024-03-07T10:25:27;50.47;;;34.10;;
17207;SDS011;8720;48.488;9.202;2024-03-07T10:27:56;49.43;;;33.77;;
17207;SDS011;8720;48.488;9.202;2024-03-07T10:30:24;49.60;;;34.23;;
17207;SDS011;8720;48.488;9.202;2024-03-07T10:32:51;48.47;;;31.40;;
17207;SDS011;8720;48.488;9.202;2024-03-07T10:35:22;50.03;;;31.67;;
17207;SDS011;8720;48.488;9.202;2024-03-07T10:37:50;52.30;;;34.10;;
17207;SDS011;8720;48.488;9.202;2024-03-07T10:40:20;48.43;;;32.30;;
17207;SDS011;8720;48.488;9.202;2024-03-07T10:42:48;54.60;;;33.87;;
17207;SDS011;8720;48.488;9.202;2024-03-07T10:45:19;46.17;;;32.30;;
17207;SDS011;8720;48.488;9.202;2024-03-07T10:47:50;42.27;;;28.87;;
17207;SDS011;8720;48.488;9.202;2024-03-07T10:50:24;42.33;;;31.00;;
17207;SDS011;8720;48.488;9.202;2024-03-07T10:53:10;50.47;;;32.80;;
17207;SDS011;8720;48.488;9.202;2024-03-07T10:55:51;48.77;;;30.53;;
17207;SDS011;8720;48.488;9.202;2024-03-07T10:58:52;41.07;;;27.20;;
17207;SDS011;8720;48.488;9.202;2024-03-07T11:01:35;40.00;;;28.80;;
17207;SDS011;8720;48.488;9.202;2024-03-07T11:04:15;40.47;;;27.90;;
17207;SDS011;8720;48.488;9.202;2024-03-07T11:06:47;42.43;;;29.93;;
17207;SDS011;8720;48.488;9.202;2024-03-07T11:09:15;46.03;;;29.00;;
17207;SDS011;8720;48.488;9.202;2024-03-07T11:11:48;43.43;;;28.37;;
17207;SDS011;8720;48.488;9.202;2024-03-07T11:14:16;36.30;;;25.40;;
17207;SDS011;8720;48.488;9.202;2024-03-07T11:16:47;32.90;;;24.20;;
17207;SDS011;8720;48.488;9.202;2024-03-07T11:19:19;35.07;;;23.87;;
17207;SDS011;8720;48.488;9.202;2024-03-07T11:21:53;34.83;;;23.80;;
17207;SDS011;8720;48.488;9.202;2024-03-07T11:24:25;35.33;;;23.60;;
17207;SDS011;8720;48.488;9.202;2024-03-07T11:26:55;34.87;;;23.20;;
17207;SDS011;8720;48.488;9.202;2024-03-07T11:29:39;36.33;;;23.80;;
17207;SDS011;8720;48.488;9.202;2024-03-07T11:32:19;39.53;;;24.93;;
17207;SDS011;8720;48.488;9.202;2024-03-07T11:34:48;37.07;;;24.17;;
17207;SDS011;8720;48.488;9.202;2024-03-07T11:37:19;33.77;;;23.60;;
17207;SDS011;8720;48.488;9.202;2024-03-07T11:40:06;37.73;;;23.67;;
17207;SDS011;8720;48.488;9.202;2024-03-07T11:42:43;41.60;;;24.87;;
17207;SDS011;8720;48.488;9.202;2024-03-07T11:45:13;38.30;;;27.30;;
17207;SDS011;8720;48.488;9.202;2024-03-07T11:47:52;37.63;;;25.30;;
17207;SDS011;8720;48.488;9.202;2024-03-07T11:50:25;40.33;;;26.23;;
17207;SDS011;8720;48.488;9.202;2024-03-07T11:52:53;37.40;;;25.40;;
17207;SDS011;8720;48.488;9.202;2024-03-07T11:55:21;36.47;;;25.43;;
17207;SDS011;8720;48.488;9.202;2024-03-07T11:57:49;37.57;;;25.90;;
17207;SDS011;8720;48.488;9.202;2024-03-07T12:00:18;35.00;;;24.87;;
17207;SDS011;8720;48.488;9.202;2024-03-07T12:02:49;37.17;;;27.10;;
17207;SDS011;8720;48.488;9.202;2024-03-07T12:05:20;37.03;;;25.70;;
17207;SDS011;8720;48.488;9.202;2024-03-07T12:07:47;37.40;;;24.90;;
17207;SDS011;8720;48.488;9.202;2024-03-07T12:10:15;40.43;;;25.73;;
17207;SDS011;8720;48.488;9.202;2024-03-07T12:12:50;35.67;;;25.80;;
17207;SDS011;8720;48.488;9.202;2024-03-07T12:15:17;39.70;;;26.80;;
17207;SDS011;8720;48.488;9.202;2024-03-07T12:17:46;34.07;;;24.97;;
17207;SDS011;8720;48.488;9.202;2024-03-07T12:20:16;32.43;;;23.47;;
17207;SDS011;8720;48.488;9.202;2024-03-07T12:22:56;35.87;;;24.70;;
17207;SDS011;8720;48.488;9.202;2024-03-07T12:25:26;38.20;;;27.20;;
17207;SDS011;8720;48.488;9.202;2024-03-07T12:28:01;39.77;;;26.70;;
17207;SDS011;8720;48.488;9.202;2024-03-07T12:30:32;43.30;;;27.97;;
17207;SDS011;8720;48.488;9.202;2024-03-07T12:33:03;37.07;;;25.60;;
17207;SDS011;8720;48.488;9.202;2024-03-07T12:35:33;36.50;;;25.67;;
17207;SDS011;8720;48.488;9.202;2024-03-07T12:38:02;39.00;;;25.40;;
17207;SDS011;8720;48.488;9.202;2024-03-07T12:40:30;36.10;;;25.43;;
17207;SDS011;8720;48.488;9.202;2024-03-07T12:42:59;37.50;;;25.70;;
17207;SDS011;8720;48.488;9.202;2024-03-07T12:45:28;35.37;;;25.27;;
17207;SDS011;8720;48.488;9.202;2024-03-07T12:47:58;37.57;;;25.67;;
17207;SDS011;8720;48.488;9.202;2024-03-07T12:50:29;34.03;;;23.63;;
17207;SDS011;8720;48.488;9.202;2024-03-07T12:53:02;34.23;;;23.83;;
17207;SDS011;8720;48.488;9.202;2024-03-07T12:55:31;39.53;;;26.07;;
17207;SDS011;8720;48.488;9.202;2024-03-07T12:57:58;36.97;;;26.73;;
17207;SDS011;8720;48.488;9.202;2024-03-07T13:00:26;35.07;;;23.40;;
17207;SDS011;8720;48.488;9.202;2024-03-07T13:02:55;38.17;;;26.13;;
17207;SDS011;8720;48.488;9.202;2024-03-07T13:05:24;39.57;;;26.47;;
17207;SDS011;8720;48.488;9.202;2024-03-07T13:07:52;34.87;;;24.10;;
17207;SDS011;8720;48.488;9.202;2024-03-07T13:10:21;41.33;;;25.17;;
17207;SDS011;8720;48.488;9.202;2024-03-07T13:12:49;38.20;;;25.00;;
17207;SDS011;8720;48.488;9.202;2024-03-07T13:15:17;39.47;;;25.13;;
17207;SDS011;8720;48.488;9.202;2024-03-07T13:17:46;37.40;;;25.73;;
17207;SDS011;8720;48.488;9.202;2024-03-07T13:20:18;34.07;;;24.27;;
17207;SDS011;8720;48.488;9.202;2024-03-07T13:22:47;41.10;;;26.63;;
17207;SDS011;8720;48.488;9.202;2024-03-07T13:25:16;38.33;;;26.23;;
17207;SDS011;8720;48.488;9.202;2024-03-07T13:27:55;40.53;;;27.33;;
17207;SDS011;8720;48.488;9.202;2024-03-07T13:30:28;38.77;;;27.30;;
17207;SDS011;8720;48.488;9.202;2024-03-07T13:32:56;41.47;;;28.47;;
17207;SDS011;8720;48.488;9.202;2024-03-07T13:35:25;42.50;;;28.57;;
17207;SDS011;8720;48.488;9.202;2024-03-07T13:37:53;38.23;;;27.30;;
17207;SDS011;8720;48.488;9.202;2024-03-07T13:40:21;41.30;;;29.20;;
17207;SDS011;8720;48.488;9.202;2024-03-07T13:42:50;45.10;;;29.77;;
17207;SDS011;8720;48.488;9.202;2024-03-07T13:45:22;41.93;;;29.47;;
17207;SDS011;8720;48.488;9.202;2024-03-07T13:47:52;44.20;;;31.00;;
17207;SDS011;8720;48.488;9.202;2024-03-07T13:50:21;41.03;;;27.80;;
17207;SDS011;8720;48.488;9.202;2024-03-07T13:52:50;39.37;;;27.83;;
17207;SDS011;8720;48.488;9.202;2024-03-07T13:55:50;38.77;;;27.80;;
17207;SDS011;8720;48.488;9.202;2024-03-07T14:01:52;38.27;;;27.70;;
17207;SDS011;8720;48.488;9.202;2024-03-07T14:04:51;43.63;;;30.70;;
17207;SDS011;8720;48.488;9.202;2024-03-07T14:08:12;40.70;;;28.50;;
17207;SDS011;8720;48.488;9.202;2024-03-07T14:19:16;34.10;;;26.00;;
17207;SDS011;8720;48.488;9.202;2024-03-07T14:23:00;37.87;;;25.67;;
17207;SDS011;8720;48.488;9.202;2024-03-07T14:25:57;36.50;;;25.50;;
17207;SDS011;8720;48.488;9.202;2024-03-07T14:29:08;35.90;;;25.67;;
17207;SDS011;8720;48.488;9.202;2024-03-07T14:31:53;38.00;;;27.83;;
17207;SDS011;8720;48.488;9.202;2024-03-07T14:34:24;31.93;;;24.97;;
17207;SDS011;8720;48.488;9.202;2024-03-07T14:37:17;37.43;;;26.10;;
17207;SDS011;8720;48.488;9.202;2024-03-07T14:39:50;43.23;;;29.20;;
17207;SDS011;8720;48.488;9.202;2024-03-07T14:42:35;37.10;;;28.30;;
17207;SDS011;8720;48.488;9.202;2024-03-07T14:45:08;42.70;;;29.20;;
17207;SDS011;8720;48.488;9.202;2024-03-07T14:47:43;37.23;;;28.30;;
17207;SDS011;8720;48.488;9.202;2024-03-07T14:50:14;38.70;;;28.90;;
17207;SDS011;8720;48.488;9.202;2024-03-07T14:52:45;35.00;;;25.87;;
17207;SDS011;8720;48.488;9.202;2024-03-07T14:55:14;35.83;;;27.57;;
17207;SDS011;8720;48.488;9.202;2024-03-07T14:57:44;36.70;;;25.57;;
17207;SDS011;8720;48.488;9.202;2024-03-07T15:00:12;35.17;;;28.10;;
17207;SDS011;8720;48.488;9.202;2024-03-07T15:02:46;36.13;;;26.80;;
17207;SDS011;8720;48.488;9.202;2024-03-07T15:05:16;35.77;;;26.10;;